Data for 05/10/2006

Time Sea-Level Adjusted Pressure Absolute Pressure Temperature Relative Humidity Dew Point   
(mb) (inHg) (mb) (inHg) (C) (F) (%) (C) (F)
00:05 1022 30.18 851 25.13 5.6 42.2 33 -9.5 15
00:10 1022 30.18 851 25.13 5.6 42.1 33 -9.4 15.1
00:15 1022 30.18 851 25.13 5.5 42 34 -9.3 15.3
00:20 1022 30.18 851 25.13 5.3 41.6 34 -9.3 15.3
00:25 1022 30.18 851 25.13 5.2 41.3 34 -9.3 15.2
00:30 1022 30.18 852 25.16 5.1 41.3 34 -9.3 15.2
00:35 1022 30.18 852 25.16 5.1 41.2 35 -9.3 15.2
00:40 1023 30.21 852 25.16 5 41 35 -9.3 15.2
00:45 1023 30.21 852 25.16 4.8 40.7 35 -9.2 15.4
00:50 1023 30.21 852 25.16 4.7 40.4 36 -9.3 15.3
00:55 1023 30.21 852 25.16 4.5 40.2 37 -9 15.9
01:00 1023 30.21 852 25.16 4.4 39.9 37 -9 15.8
01:05 1023 30.21 852 25.16 4.3 39.8 37 -9.1 15.6
01:10 1023 30.21 852 25.16 4.3 39.8 37 -9 15.8
01:15 1023 30.21 852 25.16 4.2 39.6 38 -8.8 16.1
01:20 1023 30.21 852 25.16 4 39.2 39 -8.8 16.2
01:25 1023 30.21 852 25.16 3.9 39 40 -8.6 16.5
01:30 1023 30.21 852 25.16 3.8 38.8 40 -8.7 16.4
01:35 1023 30.21 852 25.16 3.7 38.7 40 -8.6 16.6
01:40 1023 30.21 852 25.16 3.4 38.2 41 -8.5 16.7
01:45 1023 30.21 852 25.16 2.9 37.3 44 -8.2 17.2
01:50 1023 30.21 852 25.16 2.6 36.6 44 -8.4 16.9
01:55 1023 30.21 852 25.16 2.5 36.5 44 -8.5 16.8
02:00 1023 30.21 852 25.16 2.5 36.6 44 -8.5 16.7
02:05 1023 30.21 852 25.16 2.6 36.6 44 -8.5 16.7
02:10 1023 30.21 852 25.16 2.5 36.5 45 -8.3 17
02:15 1023 30.21 853 25.19 2.5 36.5 45 -8.2 17.3
02:20 1023 30.21 853 25.19 2.1 35.9 47 -8 17.6
02:25 1023 30.21 853 25.19 1.7 35.1 49 -7.9 17.7
02:30 1023 30.21 853 25.19 1.4 34.6 50 -7.8 18
02:35 1023 30.21 853 25.19 1.2 34.1 51 -7.8 18
02:40 1023 30.21 853 25.19 1.1 34.1 52 -7.8 18
02:45 1023 30.21 853 25.19 1.1 34 52 -7.6 18.3
02:50 1023 30.21 853 25.19 1.2 34.1 52 -7.6 18.3
02:55 1023 30.21 853 25.19 1.4 34.4 51 -7.8 18
03:00 1023 30.21 853 25.19 1.6 34.8 51 -7.6 18.3
03:05 1024 30.24 853 25.19 1.6 34.8 50 -7.7 18.2
03:10 1023 30.21 853 25.19 1.9 35.4 49 -7.7 18.2
03:15 1024 30.24 853 25.19 2.1 35.7 48 -7.7 18.1
03:20 1024 30.24 853 25.19 2.2 36 48 -7.5 18.4
03:25 1024 30.24 853 25.19 2.2 35.9 49 -7.3 18.8
03:30 1024 30.24 853 25.19 1.4 34.6 53 -7.1 19.3
03:35 1024 30.24 853 25.19 0.8 33.5 55 -7.2 19.1
03:40 1024 30.24 853 25.19 0.5 33 56 -7.2 19
03:45 1024 30.24 853 25.19 0.7 33.3 55 -7.4 18.6
03:50 1024 30.24 853 25.19 0.8 33.4 55 -7.2 19.1
03:55 1024 30.24 853 25.19 0.9 33.7 52 -7.8 18
04:00 1024 30.24 853 25.19 1.6 34.8 52 -7.2 19
04:05 1024 30.24 853 25.19 1.6 34.8 51 -7.5 18.6
04:10 1024 30.24 853 25.19 1.6 34.9 51 -7.4 18.7
04:15 1024 30.24 853 25.19 1.4 34.6 52 -7.5 18.6
04:20 1024 30.24 853 25.19 1.4 34.6 52 -7.5 18.5
04:25 1024 30.24 853 25.19 1.4 34.5 52 -7.5 18.5
04:30 1024 30.24 853 25.19 1.4 34.5 52 -7.5 18.5
04:35 1024 30.24 853 25.19 1.1 34 55 -7 19.3
04:40 1024 30.24 854 25.22 0.9 33.6 55 -7.1 19.2
04:45 1024 30.24 854 25.22 1 33.8 53 -7.6 18.4
04:50 1024 30.24 854 25.22 1.1 34 52 -7.6 18.3
04:55 1024 30.24 854 25.22 1.4 34.4 51 -7.6 18.3
05:00 1025 30.27 854 25.22 1.6 34.8 51 -7.5 18.5
05:05 1025 30.27 854 25.22 1.6 35 49 -8 17.5
05:10 1025 30.27 854 25.22 1.9 35.4 48 -8 17.6
05:15 1025 30.27 854 25.22 2 35.5 48 -8 17.5
05:20 1025 30.27 854 25.22 1.9 35.5 48 -8 17.6
05:25 1025 30.27 854 25.22 1.8 35.2 48 -8.1 17.5
05:30 1025 30.27 854 25.22 1.7 35.1 48 -8 17.5
05:35 1025 30.27 854 25.22 1.6 34.9 49 -8 17.6
05:40 1025 30.27 854 25.22 1.9 35.4 47 -8.2 17.3
05:45 1025 30.27 854 25.22 1.9 35.5 48 -8.1 17.5
05:50 1025 30.27 854 25.22 1.6 34.9 49 -7.9 17.8
05:55 1025 30.27 854 25.22 1.3 34.4 50 -7.9 17.8
06:00 1025 30.27 854 25.22 1.3 34.4 50 -8.1 17.5
06:05 1025 30.27 854 25.22 1.3 34.4 51 -7.7 18.1
06:10 1025 30.27 854 25.22 1.2 34.2 51 -7.9 17.7
06:15 1025 30.27 855 25.25 1.3 34.4 50 -7.9 17.8
06:20 1025 30.27 855 25.25 1.6 34.8 50 -7.9 17.9
06:25 1025 30.27 855 25.25 1.5 34.6 53 -7.2 19.1
06:30 1026 30.3 855 25.25 1.1 33.9 52 -7.7 18.2
06:35 1026 30.3 855 25.25 1.5 34.8 50 -7.7 18.1
06:40 1026 30.3 855 25.25 1.9 35.5 48 -7.8 17.9
06:45 1026 30.3 855 25.25 2.3 36.2 47 -7.7 18.1
06:50 1026 30.3 855 25.25 2.5 36.5 48 -7.5 18.5
06:55 1026 30.3 855 25.25 2.3 36.2 50 -7 19.3
07:00 1026 30.3 855 25.25 1.8 35.3 52 -7 19.3
07:05 1026 30.3 855 25.25 1.5 34.7 54 -6.8 19.8
07:10 1026 30.3 855 25.25 1.7 35 53 -7 19.4
07:15 1026 30.3 855 25.25 1.9 35.4 52 -6.8 19.7
07:20 1026 30.3 855 25.25 2.4 36.3 51 -6.8 19.7
07:25 1026 30.3 855 25.25 3 37.4 47 -7.2 19
07:30 1026 30.3 855 25.25 3.7 38.7 44 -7.3 18.8
07:35 1026 30.3 855 25.25 3.9 39 46 -6.6 20.1
07:40 1026 30.3 855 25.25 3.7 38.7 47 -6.5 20.3
07:45 1026 30.3 855 25.25 3.9 39 47 -6.5 20.3
07:50 1026 30.3 855 25.25 4.3 39.7 44 -7 19.3
07:55 1026 30.3 856 25.28 4.4 40 43 -7 19.4
08:00 1026 30.3 856 25.28 4.9 40.8 42 -7.1 19.3
08:05 1026 30.3 856 25.28 5 41 41 -7.1 19.2
08:10 1026 30.3 856 25.28 5.3 41.5 40 -7.2 19.1
08:15 1026 30.3 856 25.28 5.6 42 41 -6.7 19.9
08:20 1026 30.3 856 25.28 5.9 42.6 39 -7.1 19.2
08:25 1026 30.3 856 25.28 5.7 42.3 41 -6.4 20.4
08:30 1026 30.3 856 25.28 5.6 42.1 39 -7.2 19.1
08:35 1026 30.3 856 25.28 5.9 42.6 39 -7 19.5
08:40 1027 30.33 856 25.28 5.4 41.7 41 -6.9 19.5
08:45 1027 30.33 856 25.28 5.7 42.3 40 -6.9 19.5
08:50 1027 30.33 856 25.28 6.2 43.2 37 -7.5 18.5
08:55 1027 30.33 856 25.28 6.6 43.9 37 -7.2 19.1
09:00 1027 30.33 856 25.28 7 44.6 35 -7.4 18.7
09:05 1027 30.33 856 25.28 6.9 44.4 37 -6.8 19.8
09:10 1027 30.33 856 25.28 6.6 43.9 37 -7 19.3
09:15 1027 30.33 856 25.28 7 44.7 35 -7.5 18.4
09:20 1027 30.33 856 25.28 7.4 45.2 34 -7.4 18.7
09:25 1027 30.33 856 25.28 7.6 45.6 34 -7.2 19.1
09:30 1027 30.33 856 25.28 8 46.3 33 -7.4 18.7
09:35 1027 30.33 856 25.28 7.9 46.3 34 -7 19.4
09:40 1027 30.33 856 25.28 8 46.3 34 -7.1 19.2
09:45 1027 30.33 856 25.28 8.1 46.6 34 -6.9 19.5
09:50 1027 30.33 856 25.28 8.4 47.1 32 -7.4 18.7
09:55 1027 30.33 856 25.28 8.5 47.3 33 -7 19.5
10:00 1027 30.33 856 25.28 8.2 46.8 33 -7.3 18.9
10:05 1027 30.33 856 25.28 8.9 48 31 -7.4 18.7
10:10 1027 30.33 856 25.28 8.5 47.2 32 -7.4 18.7
10:15 1027 30.33 856 25.28 7.9 46.2 33 -7.4 18.7
10:20 1027 30.33 856 25.28 8.4 47.2 32 -7.5 18.6
10:25 1027 30.33 856 25.28 8.3 47 32 -7.3 18.8
10:30 1027 30.33 856 25.28 8.8 47.9 31 -7.2 19
10:35 1027 30.33 856 25.28 9.5 49.1 31 -6.9 19.6
10:40 1027 30.33 856 25.28 9.6 49.2 30 -7.2 19
10:45 1027 30.33 856 25.28 9.7 49.4 30 -6.9 19.6
10:50 1027 30.33 856 25.28 9.3 48.7 32 -6.6 20.2
10:55 1027 30.33 856 25.28 8.9 47.9 32 -7.1 19.2
11:00 1027 30.33 856 25.28 9.7 49.4 30 -7.2 19.1
11:05 1027 30.33 856 25.28 9.4 49 31 -7 19.3
11:10 1027 30.33 856 25.28 9.2 48.6 30 -7.3 18.9
11:15 1027 30.33 856 25.28 9.2 48.5 31 -7.1 19.2
11:20 1027 30.33 856 25.28 9.6 49.2 30 -7.4 18.8
11:25 1027 30.33 856 25.28 9.9 49.8 29 -7.3 18.9
11:30 1027 30.33 856 25.28 9.6 49.4 30 -7.2 19.1
11:35 1027 30.33 856 25.28 9.5 49.1 30 -7.4 18.7
11:40 1027 30.33 856 25.28 10.5 51 27 -7.5 18.5
11:45 1027 30.33 856 25.28 10.3 50.6 29 -7.1 19.2
11:50 1027 30.33 856 25.28 10.7 51.2 28 -7.1 19.3
11:55 1027 30.33 856 25.28 10.6 51 28 -7.2 19.1
12:00 1027 30.33 856 25.28 10.8 51.5 29 -6.4 20.5
12:05 1027 30.33 856 25.28 10.2 50.4 29 -6.8 19.7
12:10 1027 30.33 856 25.28 10.9 51.7 28 -7 19.4
12:15 1027 30.33 856 25.28 10.9 51.7 28 -6.9 19.6
12:20 1027 30.33 856 25.28 11.2 52.1 28 -6.8 19.7
12:25 1027 30.33 856 25.28 11.7 53.1 28 -6.3 20.6
12:30 1027 30.33 856 25.28 11 51.7 29 -6.5 20.3
12:35 1027 30.33 856 25.28 10.6 51.1 29 -6.6 20.1
12:40 1027 30.33 856 25.28 10.9 51.5 27 -7.3 18.9
12:45 1027 30.33 856 25.28 11.8 53.2 25 -7.5 18.6
12:50 1027 30.33 856 25.28 11.3 52.3 28 -6.4 20.5
12:55 1027 30.33 856 25.28 11.1 52 27 -7 19.3
13:00 1027 30.33 856 25.28 12.4 54.3 26 -6.7 20
13:05 1027 30.33 856 25.28 11.1 52 27 -7.1 19.3
13:10 1027 30.33 856 25.28 11.2 52.1 27 -7.1 19.3
13:15 1027 30.33 856 25.28 11.6 52.8 26 -7.1 19.3
13:20 1026 30.3 856 25.28 12 53.7 27 -6.6 20.2
13:25 1026 30.3 856 25.28 10.5 50.8 29 -6.8 19.7
13:30 1026 30.3 856 25.28 9.7 49.4 31 -6.7 19.9
13:35 1026 30.3 856 25.28 9.5 49.1 29 -7.7 18.2
13:40 1026 30.3 855 25.25 9.8 49.6 29 -7.5 18.5
13:45 1026 30.3 855 25.25 10.9 51.6 26 -7.7 18.1
13:50 1026 30.3 855 25.25 12.1 53.7 25 -7.3 18.9
13:55 1026 30.3 855 25.25 12.2 54 25 -7.4 18.8
14:00 1026 30.3 855 25.25 12.2 53.9 26 -6.6 20.2
14:05 1026 30.3 855 25.25 11.1 52 27 -7 19.4
14:10 1026 30.3 855 25.25 11.5 52.8 27 -6.9 19.7
14:15 1026 30.3 855 25.25 11.1 52 28 -6.7 19.9
14:20 1026 30.3 855 25.25 11.9 53.5 25 -7.4 18.7
14:25 1026 30.3 855 25.25 13 55.4 24 -6.8 19.7
14:30 1026 30.3 855 25.25 13.6 56.4 22 -7.4 18.6
14:35 1026 30.3 855 25.25 13.3 56 25 -6.3 20.7
14:40 1026 30.3 855 25.25 13 55.4 23 -7.4 18.7
14:45 1026 30.3 855 25.25 13.1 55.7 23 -7.4 18.7
14:50 1026 30.3 855 25.25 13.2 55.7 24 -6.7 19.9
14:55 1026 30.3 855 25.25 12.5 54.4 23 -7.9 17.8
15:00 1026 30.3 855 25.25 12.5 54.5 24 -7.3 18.9
15:05 1026 30.3 855 25.25 12.9 55.2 25 -6.6 20.1
15:10 1026 30.3 855 25.25 12.3 54.1 25 -7 19.4
15:15 1026 30.3 855 25.25 11.9 53.5 25 -7.3 18.8
15:20 1026 30.3 855 25.25 11.7 53.1 26 -7 19.5
15:25 1026 30.3 855 25.25 12.7 54.9 25 -7 19.4
15:30 1026 30.3 855 25.25 13 55.3 23 -7.5 18.5
15:35 1025 30.27 855 25.25 13.2 55.8 23 -7.3 18.9
15:40 1025 30.27 855 25.25 13.6 56.4 24 -6.8 19.7
15:45 1025 30.27 855 25.25 14.3 57.8 22 -7 19.4
15:50 1025 30.27 855 25.25 14.1 57.4 22 -7.1 19.2
15:55 1025 30.27 854 25.22 13.6 56.5 23 -7 19.4
16:00 1025 30.27 854 25.22 13.6 56.5 23 -7.1 19.3
16:05 1025 30.27 854 25.22 14.2 57.6 22 -7.2 19.1
16:10 1025 30.27 854 25.22 14 57.2 23 -6.9 19.5
16:15 1025 30.27 854 25.22 14 57.2 24 -6.3 20.6
16:20 1025 30.27 854 25.22 13.8 56.8 22 -7.5 18.5
16:25 1025 30.27 854 25.22 14.2 57.5 22 -7.4 18.6
16:30 1025 30.27 854 25.22 13.6 56.5 22 -7.8 18
16:35 1025 30.27 854 25.22 13.2 55.8 22 -7.9 17.8
16:40 1025 30.27 854 25.22 12.8 55.1 22 -8.2 17.2
16:45 1025 30.27 854 25.22 13.8 56.8 24 -6.7 20
16:50 1025 30.27 854 25.22 13.8 56.9 22 -7.3 18.9
16:55 1025 30.27 854 25.22 14.3 57.7 21 -7.8 18
17:00 1025 30.27 854 25.22 14.1 57.3 23 -6.6 20.1
17:05 1025 30.27 854 25.22 13.9 57.1 21 -7.9 17.8
17:10 1025 30.27 854 25.22 14.6 58.2 20 -8.3 17.1
17:15 1025 30.27 854 25.22 13.9 57.1 22 -7.5 18.5
17:20 1025 30.27 854 25.22 12.9 55.1 22 -8.4 16.8
17:25 1025 30.27 854 25.22 12.8 55.1 23 -8 17.6
17:30 1025 30.27 854 25.22 13.2 55.7 23 -7.3 18.8
17:35 1025 30.27 854 25.22 13.3 56 24 -7 19.4
17:40 1025 30.27 854 25.22 14 57.2 22 -7.6 18.4
17:45 1025 30.27 854 25.22 14 57.1 23 -7 19.3
17:50 1025 30.27 854 25.22 13.5 56.3 22 -7.5 18.5
17:55 1025 30.27 854 25.22 13.3 56 22 -8 17.6
18:00 1024 30.24 854 25.22 13.3 55.9 24 -7.1 19.3
18:05 1024 30.24 854 25.22 13.6 56.5 23 -7.1 19.2
18:10 1024 30.24 854 25.22 13.3 56 23 -7.1 19.1
18:15 1024 30.24 854 25.22 12.6 54.7 23 -7.7 18.1
18:20 1024 30.24 854 25.22 13.2 55.8 23 -7.4 18.7
18:25 1024 30.24 853 25.19 13.4 56.1 22 -7.7 18.1
18:30 1024 30.24 853 25.19 14.3 57.7 22 -7.4 18.7
18:35 1024 30.24 853 25.19 14.5 58.2 22 -7 19.3
18:40 1024 30.24 853 25.19 14.2 57.5 22 -7.3 18.9
18:45 1024 30.24 853 25.19 14.1 57.5 22 -7.3 18.9
18:50 1024 30.24 853 25.19 13.3 55.9 23 -7.4 18.7
18:55 1024 30.24 853 25.19 13.1 55.6 23 -7.6 18.3
19:00 1024 30.24 853 25.19 13 55.4 23 -7.3 18.8
19:05 1024 30.24 853 25.19 13 55.3 23 -7.4 18.6
19:10 1024 30.24 853 25.19 12.8 55 24 -7.3 18.9
19:15 1024 30.24 853 25.19 12.6 54.7 24 -7.4 18.7
19:20 1024 30.24 853 25.19 12.3 54.1 24 -7.5 18.5
19:25 1024 30.24 853 25.19 12.1 53.8 25 -7.4 18.7
19:30 1024 30.24 853 25.19 12.3 54.1 24 -7.7 18.1
19:35 1024 30.24 853 25.19 12.3 54.1 24 -7.6 18.4
19:40 1024 30.24 853 25.19 12.5 54.6 24 -7.4 18.6
19:45 1024 30.24 853 25.19 12.7 54.9 24 -7.1 19.2
19:50 1024 30.24 853 25.19 12.6 54.6 24 -7.3 18.9
19:55 1024 30.24 853 25.19 12.3 54.1 25 -7.1 19.3
20:00 1024 30.24 853 25.19 12 53.5 25 -7.3 18.9
20:05 1023 30.21 853 25.19 12 53.5 26 -7.1 19.1
20:10 1023 30.21 853 25.19 12 53.5 26 -7 19.4
20:15 1023 30.21 853 25.19 11.9 53.5 26 -6.8 19.7
20:20 1023 30.21 853 25.19 11.8 53.2 27 -6.7 20
20:25 1023 30.21 853 25.19 11.6 52.9 28 -6.4 20.4
20:30 1023 30.21 853 25.19 11.5 52.6 28 -6.6 20.1
20:35 1023 30.21 853 25.19 11.3 52.3 28 -6.3 20.6
20:40 1023 30.21 853 25.19 11.2 52.1 28 -6.4 20.4
20:45 1023 30.21 853 25.19 11 51.8 29 -6.2 20.9
20:50 1023 30.21 853 25.19 10.7 51.3 30 -6.3 20.6
20:55 1023 30.21 853 25.19 10.3 50.6 33 -5.3 22.4
21:00 1023 30.21 853 25.19 9.8 49.7 35 -4.8 23.3
21:05 1023 30.21 853 25.19 9.3 48.8 38 -4.3 24.3
21:10 1023 30.21 853 25.19 9 48.2 38 -4.4 24.1
21:15 1023 30.21 853 25.19 8.6 47.6 40 -4.1 24.6
21:20 1024 30.24 853 25.19 8.4 47.1 40 -4.4 24.1
21:25 1024 30.24 853 25.19 8.2 46.8 42 -3.8 25.1
21:30 1024 30.24 853 25.19 7.9 46.3 43 -3.9 24.9
21:35 1024 30.24 853 25.19 7.2 44.9 45 -4 24.9
21:40 1024 30.24 853 25.19 6.8 44.2 44 -4.6 23.8
21:45 1024 30.24 853 25.19 7 44.7 44 -4.3 24.3
21:50 1024 30.24 853 25.19 6.9 44.5 45 -4.3 24.3
21:55 1024 30.24 853 25.19 7 44.6 43 -4.7 23.6
22:00 1024 30.24 853 25.19 7.3 45.1 42 -4.7 23.5
22:05 1024 30.24 853 25.19 7.2 45 42 -4.8 23.4
22:10 1024 30.24 853 25.19 7 44.5 44 -4.5 23.8
22:15 1024 30.24 853 25.19 6.7 44 45 -4.4 24
22:20 1024 30.24 853 25.19 6.4 43.4 46 -4.4 24
22:25 1024 30.24 853 25.19 6.2 43.2 46 -4.5 23.9
22:30 1024 30.24 853 25.19 6.3 43.3 45 -4.9 23.2
22:35 1024 30.24 853 25.19 6.5 43.6 45 -4.8 23.4
22:40 1024 30.24 853 25.19 6.5 43.6 44 -4.9 23.1
22:45 1024 30.24 853 25.19 6.5 43.7 44 -4.8 23.3
22:50 1024 30.24 853 25.19 6.3 43.3 46 -4.5 23.9
22:55 1024 30.24 853 25.19 6.2 43.1 44 -5.1 22.9
23:00 1023 30.21 853 25.19 6.3 43.3 43 -5.3 22.4
23:05 1023 30.21 853 25.19 6.3 43.4 43 -5.3 22.5
23:10 1023 30.21 853 25.19 6.2 43.2 44 -5.2 22.6
23:15 1023 30.21 853 25.19 6.2 43.2 44 -5.2 22.7
23:20 1023 30.21 853 25.19 6.2 43.2 44 -5.1 22.8
23:25 1023 30.21 853 25.19 6 42.8 44 -5.2 22.6
23:30 1023 30.21 853 25.19 5.8 42.5 45 -5.3 22.4
23:35 1023 30.21 852 25.16 5.8 42.4 45 -5.2 22.7
23:40 1023 30.21 852 25.16 5.8 42.4 44 -5.4 22.2
23:45 1023 30.21 852 25.16 5.8 42.5 45 -5.2 22.7
23:50 1023 30.21 852 25.16 5.7 42.3 45 -5.3 22.5
23:55 1023 30.21 852 25.16 5.8 42.4 44 -5.4 22.2
24:00 1023 30.21 852 25.16 5.8 42.4 43 -5.7 21.7